Time;durP1;ratioP1;P1;durP2;ratioP2;P2;SDS_P1;SDS_P2;PMS_P1;PMS_P2;Temp;Humidity;BMP_temperature;BMP_pressure;BME280_temperature;BME280_humidity;BME280_pressure;Samples;Min_cycle;Max_cycle;Signal;HPM_P1;HPM_P2
2021/04/07 00:00:56;;;;;;;36.47;17.17;;;;;;;8.02;77.84;97562.28;6189044;23;20030;-77
2021/04/07 00:03:22;;;;;;;30.50;16.83;;;;;;;7.98;77.73;97566.63;6220418;23;20000;-79
2021/04/07 00:05:47;;;;;;;27.60;16.02;;;;;;;7.94;78.08;97569.06;6219095;23;20007;-79
2021/04/07 00:08:18;;;;;;;28.40;16.80;;;;;;;7.91;77.79;97568.88;6218731;23;20074;-79
2021/04/07 00:10:44;;;;;;;34.08;16.20;;;;;;;7.88;78.17;97564.16;6218723;23;19996;-79
2021/04/07 00:13:12;;;;;;;29.98;17.70;;;;;;;7.87;78.20;97563.34;6246621;23;20004;-78
2021/04/07 00:15:39;;;;;;;33.73;16.70;;;;;;;7.84;77.79;97566.63;6218182;23;19996;-79
2021/04/07 00:18:05;;;;;;;29.88;15.50;;;;;;;7.83;77.80;97559.72;6218386;23;20000;-79
2021/04/07 00:20:31;;;;;;;27.55;15.82;;;;;;;7.80;78.07;97557.63;6217906;23;20008;-78
2021/04/07 00:22:57;;;;;;;28.35;14.65;;;;;;;7.80;77.50;97562.94;6218365;23;20020;-78
2021/04/07 00:25:23;;;;;;;30.00;15.13;;;;;;;7.78;78.00;97557.91;6218034;23;19999;-79
2021/04/07 00:27:53;;;;;;;36.08;17.67;;;;;;;7.76;77.85;97561.97;6246620;23;20004;-77
2021/04/07 00:33:47;;;;;;;29.15;15.75;;;;;;;7.71;77.93;97552.19;6248061;23;20043;-78
2021/04/07 00:36:20;;;;;;;30.20;14.55;;;;;;;7.71;78.21;97548.75;6213965;23;20396;-78
2021/04/07 00:42:08;;;;;;;27.25;14.05;;;;;;;7.64;77.53;97531.31;6216460;23;20008;-78
2021/04/07 00:44:34;;;;;;;24.58;14.65;;;;;;;7.62;77.81;97530.03;6215666;23;20362;-77
2021/04/07 00:46:59;;;;;;;26.02;14.82;;;;;;;7.61;77.75;97533.75;6190130;23;20046;-77
2021/04/07 00:49:25;;;;;;;30.58;14.50;;;;;;;7.57;77.71;97528.25;6215056;23;20087;-77
2021/04/07 00:51:52;;;;;;;22.20;13.68;;;;;;;7.53;78.13;97509.41;6190442;23;20004;-79
2021/04/07 00:54:19;;;;;;;23.75;13.93;;;;;;;7.45;78.33;97502.09;6214268;23;20008;-79
2021/04/07 00:56:45;;;;;;;24.05;12.95;;;;;;;7.44;78.29;97505.06;6212201;23;20005;-79
2021/04/07 00:59:18;;;;;;;24.42;14.55;;;;;;;7.39;78.78;97481.22;6186880;23;20001;-79
2021/04/07 01:01:44;;;;;;;24.27;13.98;;;;;;;7.29;78.85;97492.81;6212753;23;20356;-79
2021/04/07 01:04:11;;;;;;;26.08;14.52;;;;;;;7.23;79.78;97500.09;6189313;23;20127;-80
2021/04/07 01:06:38;;;;;;;25.23;14.52;;;;;;;7.22;79.65;97511.81;6198659;23;20000;-79
2021/04/07 01:09:03;;;;;;;27.27;14.43;;;;;;;7.21;79.32;97526.19;6221929;23;20035;-80
2021/04/07 01:11:29;;;;;;;29.73;16.02;;;;;;;7.21;80.05;97518.19;6225692;23;20416;-78
2021/04/07 01:13:55;;;;;;;25.63;14.20;;;;;;;7.20;79.87;97519.28;6251751;23;20374;-78
2021/04/07 01:16:21;;;;;;;26.08;13.43;;;;;;;7.21;79.98;97542.94;6225915;23;20013;-78
2021/04/07 01:18:47;;;;;;;27.98;14.85;;;;;;;7.19;79.65;97557.59;6225249;23;20022;-79
2021/04/07 01:24:36;;;;;;;27.98;13.52;;;;;;;7.21;80.34;97537.63;6253976;23;20464;-77
2021/04/07 01:27:01;;;;;;;33.03;14.65;;;;;;;7.21;80.28;97550.09;6223984;23;20002;-77
2021/04/07 01:29:27;;;;;;;28.25;17.13;;;;;;;7.23;80.34;97542.63;6225157;23;20373;-78
2021/04/07 01:36:18;;;;;;;24.75;14.27;;;;;;;7.26;80.19;97530.63;6256500;23;19994;-81
2021/04/07 01:38:47;;;;;;;26.58;15.38;;;;;;;7.22;79.31;97530.41;6211397;23;20074;-78
2021/04/07 01:41:44;;;;;;;25.77;16.33;;;;;;;7.16;79.30;97511.09;6227375;23;20027;-80
2021/04/07 01:44:52;;;;;;;28.05;15.63;;;;;;;7.04;79.06;97500.94;6230771;22;20054;-81
2021/04/07 01:50:41;;;;;;;19.27;12.75;;;;;;;6.96;79.23;97487.53;6281763;22;20002;-75
2021/04/07 01:53:10;;;;;;;22.23;13.43;;;;;;;6.94;79.49;97495.75;6276651;22;20432;-78
2021/04/07 01:55:35;;;;;;;25.42;14.48;;;;;;;6.91;79.71;97493.69;6278797;22;20019;-77
2021/04/07 01:58:01;;;;;;;24.25;13.45;;;;;;;6.90;79.63;97484.16;6275617;22;20420;-77
2021/04/07 02:00:26;;;;;;;21.42;13.82;;;;;;;6.84;79.58;97486.06;6275802;22;20321;-76
2021/04/07 02:02:52;;;;;;;28.60;15.65;;;;;;;6.88;80.21;97481.78;6274650;22;20082;-75
2021/04/07 02:05:17;;;;;;;24.00;13.13;;;;;;;6.89;79.66;97483.34;6276965;22;20324;-75
2021/04/07 02:07:43;;;;;;;25.40;13.30;;;;;;;6.86;79.92;97486.59;6278688;22;20003;-77
2021/04/07 02:10:10;;;;;;;24.35;14.40;;;;;;;6.89;80.01;97495.84;6277965;22;20003;-78
2021/04/07 02:12:35;;;;;;;25.15;15.57;;;;;;;6.85;79.70;97481.56;6249876;22;20323;-77
2021/04/07 02:15:09;;;;;;;34.22;18.65;;;;;;;6.82;80.70;97482.94;6276051;22;20083;-79
2021/04/07 02:17:35;;;;;;;35.72;18.25;;;;;;;6.79;80.71;97483.50;6250219;22;19999;-76
2021/04/07 02:20:00;;;;;;;32.10;16.85;;;;;;;6.79;80.49;97491.47;6275571;22;20012;-76
2021/04/07 02:22:25;;;;;;;35.25;18.40;;;;;;;6.80;80.54;97481.63;6276021;22;19996;-77
2021/04/07 02:37:20;;;;;;;37.35;21.30;;;;;;;6.59;81.04;97467.88;6252516;22;20349;-78
2021/04/07 02:39:46;;;;;;;41.17;21.38;;;;;;;6.55;81.25;97468.47;6248474;23;20004;-78
2021/04/07 02:42:13;;;;;;;35.92;17.80;;;;;;;6.52;81.80;97481.53;6221689;23;20016;-79
2021/04/07 02:44:39;;;;;;;32.60;17.73;;;;;;;6.50;82.02;97487.09;6223757;23;19996;-78
2021/04/07 02:47:06;;;;;;;41.60;16.80;;;;;;;6.50;82.87;97484.44;6223088;23;20034;-79
2021/04/07 02:49:32;;;;;;;29.23;15.02;;;;;;;6.52;83.97;97484.19;6222036;23;20100;-78
2021/04/07 02:51:58;;;;;;;35.25;16.77;;;;;;;6.53;84.23;97478.56;6221638;23;20031;-78
2021/04/07 02:54:23;;;;;;;34.05;17.75;;;;;;;6.57;83.80;97476.91;6221017;23;20015;-79
2021/04/07 02:56:49;;;;;;;27.00;14.38;;;;;;;6.63;84.05;97474.19;6248127;23;20067;-78
2021/04/07 02:59:14;;;;;;;30.45;15.57;;;;;;;6.65;84.39;97469.38;6219612;23;20680;-79
2021/04/07 03:01:40;;;;;;;29.05;14.07;;;;;;;6.69;84.39;97473.06;6218590;23;20000;-78
2021/04/07 03:04:14;;;;;;;20.90;10.45;;;;;;;6.75;84.62;97465.78;6247104;23;20023;-80
2021/04/07 03:06:40;;;;;;;24.83;13.82;;;;;;;6.79;84.58;97459.59;6218094;23;20007;-79
2021/04/07 03:09:06;;;;;;;23.58;13.10;;;;;;;6.84;84.13;97469.34;6218031;23;19992;-79
2021/04/07 03:11:31;;;;;;;33.95;13.93;;;;;;;6.86;84.14;97460.00;6218754;23;20354;-78
2021/04/07 03:13:57;;;;;;;21.77;12.85;;;;;;;6.88;84.57;97463.19;6218347;23;20042;-78
2021/04/07 03:16:22;;;;;;;23.45;13.68;;;;;;;6.92;83.67;97466.03;6244634;23;20000;-78
2021/04/07 03:18:48;;;;;;;24.83;13.05;;;;;;;6.93;83.83;97469.47;6244468;22;20432;-77
2021/04/07 03:21:13;;;;;;;23.20;13.02;;;;;;;6.92;83.56;97467.91;6218149;23;20425;-77
2021/04/07 03:23:39;;;;;;;25.27;13.18;;;;;;;6.94;83.66;97466.53;6218811;23;20000;-78
2021/04/07 03:26:04;;;;;;;20.33;11.18;;;;;;;6.99;83.99;97470.97;6218878;23;20008;-78
2021/04/07 03:28:30;;;;;;;20.77;11.80;;;;;;;7.03;83.42;97478.09;6245686;23;20028;-79
2021/04/07 03:30:56;;;;;;;21.60;13.55;;;;;;;7.06;83.45;97463.41;6218391;23;19996;-78
2021/04/07 03:33:28;;;;;;;30.98;17.38;;;;;;;7.11;83.78;97481.16;6217557;23;20001;-77
2021/04/07 03:43:31;;;;;;;24.70;14.40;;;;;;;7.23;82.17;97478.81;6277360;22;20105;-79
2021/04/07 03:45:58;;;;;;;23.58;13.88;;;;;;;7.24;82.12;97484.91;6247848;22;20094;-79
2021/04/07 03:48:56;;;;;;;27.15;15.60;;;;;;;7.24;81.85;97491.03;6250314;22;20433;-81
2021/04/07 03:51:26;;;;;;;19.05;11.32;;;;;;;7.27;82.23;97502.97;6251483;22;19999;-81
2021/04/07 03:54:56;;;;;;;19.63;12.52;;;;;;;7.28;81.56;97505.31;6237567;22;20070;-80
2021/04/07 04:07:54;;;;;;;;;;;;;;;7.81;81.70;97501.47;6324915;22;20015;-89
2021/04/07 04:14:43;;;;;;;14.82;9.15;;;;;;;8.40;79.33;97502.66;6140294;23;20012;-82
2021/04/07 04:17:18;;;;;;;18.77;10.90;;;;;;;8.76;78.46;97499.25;6212559;23;20064;-76
2021/04/07 04:19:44;;;;;;;22.55;10.95;;;;;;;9.04;76.53;97499.13;6198515;23;20004;-85
2021/04/07 04:22:26;;;;;;;18.80;10.75;;;;;;;9.39;75.20;97500.13;6215355;23;20066;-82
2021/04/07 04:24:51;;;;;;;14.57;9.45;;;;;;;9.75;74.46;97501.88;6214287;23;20006;-81
2021/04/07 04:27:16;;;;;;;13.70;8.65;;;;;;;10.11;73.69;97497.44;6214607;23;20015;-81
2021/04/07 04:29:42;;;;;;;15.43;9.88;;;;;;;10.53;71.93;97507.75;6214206;23;20002;-83
2021/04/07 04:32:07;;;;;;;17.42;10.40;;;;;;;10.92;70.88;97513.25;6214155;23;20094;-83
2021/04/07 04:34:33;;;;;;;17.15;10.43;;;;;;;11.34;68.48;97525.00;6214491;23;20004;-82
2021/04/07 04:36:59;;;;;;;18.50;11.00;;;;;;;11.75;66.94;97522.84;6216079;23;20031;-83
2021/04/07 04:39:24;;;;;;;17.42;11.32;;;;;;;12.16;64.19;97526.78;6216281;23;20358;-82
2021/04/07 04:41:49;;;;;;;20.42;11.20;;;;;;;12.57;63.05;97521.81;6241705;23;20047;-83
2021/04/07 04:44:15;;;;;;;15.55;11.18;;;;;;;12.97;61.22;97525.94;6282746;22;20451;-82
2021/04/07 04:46:40;;;;;;;18.20;10.57;;;;;;;13.34;59.46;97536.00;6310461;22;20411;-83
2021/04/07 04:49:06;;;;;;;15.93;10.60;;;;;;;13.72;58.61;97535.81;6310130;22;20003;-83
2021/04/07 04:51:31;;;;;;;13.38;9.93;;;;;;;14.10;57.89;97528.56;6310400;22;20002;-82
2021/04/07 04:53:57;;;;;;;10.35;8.45;;;;;;;14.48;56.67;97537.38;6310107;22;19998;-81
2021/04/07 04:56:22;;;;;;;11.52;8.50;;;;;;;14.79;55.27;97536.00;6310375;22;20007;-82
2021/04/07 04:58:47;;;;;;;11.38;9.23;;;;;;;15.12;54.77;97543.06;6310415;22;19999;-81
2021/04/07 05:01:13;;;;;;;15.38;10.65;;;;;;;15.45;53.54;97542.00;6310034;22;19999;-81
2021/04/07 05:03:38;;;;;;;14.40;9.88;;;;;;;15.75;52.30;97528.91;6310103;22;20006;-81
2021/04/07 05:06:04;;;;;;;10.15;7.18;;;;;;;16.05;51.82;97533.13;6309888;22;20006;-81
2021/04/07 05:08:29;;;;;;;8.80;6.13;;;;;;;16.35;50.49;97532.66;6310055;22;20014;-83
2021/04/07 05:10:55;;;;;;;8.80;7.32;;;;;;;16.64;49.89;97534.06;6309906;22;20003;-82
2021/04/07 05:13:20;;;;;;;9.45;6.70;;;;;;;16.90;47.95;97528.03;6310216;22;20038;-80
2021/04/07 05:15:46;;;;;;;9.07;7.45;;;;;;;17.04;48.47;97526.78;6311169;22;19994;-81
2021/04/07 05:18:13;;;;;;;13.38;9.05;;;;;;;17.26;48.24;97534.16;6310141;22;20073;-81
2021/04/07 05:20:39;;;;;;;11.57;8.48;;;;;;;17.45;47.73;97535.28;6310051;22;20026;-81
2021/04/07 05:23:05;;;;;;;15.98;9.70;;;;;;;17.59;47.57;97534.75;6309583;22;20425;-81
2021/04/07 05:25:30;;;;;;;15.13;9.40;;;;;;;17.71;47.22;97526.47;6309548;22;20022;-82
2021/04/07 05:27:56;;;;;;;13.75;9.82;;;;;;;17.92;47.05;97525.25;6309633;22;20010;-81
2021/04/07 05:30:22;;;;;;;17.80;11.70;;;;;;;18.11;46.85;97519.00;6309866;22;20034;-81
2021/04/07 05:32:47;;;;;;;13.77;10.32;;;;;;;18.28;46.19;97515.00;6309501;22;20071;-81
2021/04/07 05:35:13;;;;;;;15.77;10.48;;;;;;;18.43;45.62;97496.25;6309640;22;20005;-82
2021/04/07 05:37:38;;;;;;;18.55;12.27;;;;;;;18.55;45.44;97502.25;6309867;22;20034;-81
2021/04/07 05:40:05;;;;;;;13.57;10.35;;;;;;;18.70;45.31;97508.63;6309441;22;19998;-81
2021/04/07 05:42:31;;;;;;;14.95;11.70;;;;;;;18.83;45.30;97511.84;6309793;22;19999;-82
2021/04/07 05:44:56;;;;;;;16.63;12.93;;;;;;;18.96;45.28;97506.25;6309798;22;20061;-81
2021/04/07 05:47:21;;;;;;;20.23;13.18;;;;;;;19.01;43.37;97500.50;6309470;22;20323;-81
2021/04/07 05:49:47;;;;;;;18.05;12.88;;;;;;;18.83;44.27;97498.31;6309780;22;20444;-81
2021/04/07 05:52:12;;;;;;;22.38;14.10;;;;;;;18.63;44.87;97503.09;6309123;22;20316;-81
2021/04/07 05:54:38;;;;;;;19.50;13.15;;;;;;;18.47;45.57;97499.78;6309859;22;20064;-83
2021/04/07 05:57:04;;;;;;;19.33;12.32;;;;;;;18.29;46.37;97497.63;6309285;22;20006;-83
2021/04/07 05:59:29;;;;;;;19.27;11.68;;;;;;;18.20;47.48;97508.72;6309570;22;20123;-83
2021/04/07 06:01:55;;;;;;;12.95;10.02;;;;;;;18.22;48.62;97498.31;6309264;22;20086;-83
2021/04/07 06:04:20;;;;;;;14.85;9.43;;;;;;;18.24;47.86;97495.22;6309418;22;20011;-83
2021/04/07 06:06:45;;;;;;;16.58;9.20;;;;;;;18.21;47.80;97493.25;6309301;22;20038;-83
2021/04/07 06:09:11;;;;;;;9.73;8.20;;;;;;;18.22;48.10;97484.78;6308976;22;20089;-83
2021/04/07 06:11:36;;;;;;;12.00;7.57;;;;;;;18.26;48.14;97474.00;6309109;22;20430;-83
2021/04/07 06:14:02;;;;;;;11.57;7.43;;;;;;;18.29;48.35;97472.50;6308735;22;20002;-83
2021/04/07 06:16:27;;;;;;;9.25;7.20;;;;;;;18.34;47.22;97474.88;6309477;22;20308;-83
2021/04/07 06:18:53;;;;;;;15.73;8.25;;;;;;;18.38;47.93;97492.72;6308499;22;20087;-83
2021/04/07 06:21:18;;;;;;;12.45;6.97;;;;;;;18.40;47.64;97506.66;6336558;22;20002;-84
2021/04/07 06:23:44;;;;;;;11.00;7.75;;;;;;;18.48;47.75;97501.34;6309664;22;19999;-83
2021/04/07 06:26:09;;;;;;;10.68;6.75;;;;;;;18.49;47.43;97501.00;6309272;22;20006;-83
2021/04/07 06:28:35;;;;;;;14.43;6.95;;;;;;;18.53;46.85;97512.66;6309622;22;20006;-83
2021/04/07 06:31:01;;;;;;;12.55;6.18;;;;;;;18.53;46.79;97515.34;6309236;22;20011;-83
2021/04/07 06:33:31;;;;;;;8.40;5.57;;;;;;;18.56;46.47;97506.47;6309049;22;20440;-82
2021/04/07 06:36:03;;;;;;;6.72;4.13;;;;;;;18.55;44.70;97509.56;6308794;22;20010;-83
2021/04/07 06:38:29;;;;;;;10.20;6.82;;;;;;;18.38;47.30;97524.41;6308537;22;20018;-83
2021/04/07 06:40:55;;;;;;;13.02;9.07;;;;;;;18.26;49.47;97540.88;6308476;22;20330;-83
2021/04/07 06:43:26;;;;;;;10.52;7.95;;;;;;;18.06;50.32;97543.66;6308759;22;20011;-83
2021/04/07 06:45:52;;;;;;;10.02;8.23;;;;;;;17.81;51.40;97544.00;6309214;22;20013;-83
2021/04/07 06:48:18;;;;;;;11.57;7.88;;;;;;;17.55;52.14;97552.81;6308930;22;19995;-83
2021/04/07 06:50:46;;;;;;;14.02;8.15;;;;;;;17.33;51.92;97549.72;6309149;22;20021;-83
2021/04/07 06:53:12;;;;;;;13.45;9.70;;;;;;;17.05;53.25;97561.56;6308388;22;20483;-83
2021/04/07 06:55:39;;;;;;;13.57;8.95;;;;;;;16.94;53.95;97569.44;6308807;22;20009;-83
2021/04/07 06:58:06;;;;;;;12.52;8.45;;;;;;;16.79;53.10;97578.31;6308613;22;19999;-83
2021/04/07 07:00:32;;;;;;;11.85;8.75;;;;;;;16.57;53.05;97577.09;6308525;22;20057;-83
2021/04/07 07:02:59;;;;;;;12.20;8.55;;;;;;;16.39;54.32;97572.06;6309160;22;20399;-84
2021/04/07 07:05:25;;;;;;;14.38;8.90;;;;;;;16.21;54.82;97587.84;6308982;22;20003;-83
2021/04/07 07:07:52;;;;;;;16.63;11.10;;;;;;;15.80;54.16;97571.00;6308630;22;20079;-83
2021/04/07 07:10:17;;;;;;;12.82;10.20;;;;;;;15.46;55.82;97567.81;6308722;22;19998;-83
2021/04/07 07:12:44;;;;;;;16.33;11.13;;;;;;;15.09;57.16;97565.28;6308844;22;20426;-83
2021/04/07 07:15:10;;;;;;;14.68;9.57;;;;;;;14.60;57.87;97577.72;6308564;22;20006;-81
2021/04/07 07:17:37;;;;;;;12.95;10.32;;;;;;;14.22;58.91;97603.03;6308645;22;20088;-83
2021/04/07 07:20:03;;;;;;;14.85;10.48;;;;;;;14.07;59.22;97596.41;6308383;22;20486;-82
2021/04/07 07:22:30;;;;;;;17.55;11.10;;;;;;;13.88;61.38;97605.03;6308767;22;20009;-84
2021/04/07 07:25:01;;;;;;;17.48;12.15;;;;;;;13.76;61.37;97617.28;6308310;22;20003;-83
2021/04/07 07:27:40;;;;;;;14.38;11.45;;;;;;;13.63;62.18;97609.53;6308742;22;20006;-84
2021/04/07 07:30:13;;;;;;;19.92;12.60;;;;;;;13.61;63.60;97609.88;6308500;22;19994;-85
2021/04/07 07:32:40;;;;;;;16.42;11.35;;;;;;;13.51;62.27;97605.72;6308762;22;20090;-84
2021/04/07 07:35:06;;;;;;;15.47;11.50;;;;;;;13.40;63.58;97617.97;6308559;22;20038;-84
2021/04/07 07:37:32;;;;;;;20.50;13.45;;;;;;;13.35;64.17;97610.09;6308730;22;19999;-85
2021/04/07 07:39:57;;;;;;;21.42;13.38;;;;;;;13.24;64.88;97613.19;6308760;22;20026;-85
2021/04/07 07:42:23;;;;;;;23.58;14.68;;;;;;;13.25;65.23;97624.69;6309983;22;20089;-84
2021/04/07 07:44:49;;;;;;;22.92;12.48;;;;;;;13.21;65.45;97627.25;6308835;22;20073;-83
2021/04/07 07:47:17;;;;;;;20.02;12.13;;;;;;;13.28;66.19;97637.44;6308474;22;20056;-85
2021/04/07 07:50:00;;;;;;;21.27;13.82;;;;;;;13.30;66.73;97635.22;6308761;22;20003;-84
2021/04/07 07:52:32;;;;;;;19.63;12.20;;;;;;;13.43;66.71;97646.84;6308734;22;20006;-86
2021/04/07 07:54:59;;;;;;;21.73;12.68;;;;;;;13.48;65.64;97649.31;6308748;22;20030;-85
2021/04/07 07:57:25;;;;;;;21.98;13.20;;;;;;;13.56;66.77;97658.41;6308031;22;20006;-85
2021/04/07 07:59:56;;;;;;;20.05;13.25;;;;;;;13.71;65.74;97667.78;6308313;22;20007;-85
2021/04/07 08:02:25;;;;;;;20.73;13.18;;;;;;;13.74;64.98;97667.91;6308073;22;20027;-84
2021/04/07 08:04:51;;;;;;;17.38;11.45;;;;;;;13.81;64.28;97663.91;6308538;22;20014;-85
2021/04/07 08:07:17;;;;;;;20.50;12.98;;;;;;;13.69;64.81;97672.69;6293746;22;20593;-84
2021/04/07 08:09:42;;;;;;;14.80;11.27;;;;;;;13.64;65.16;97680.97;6277531;22;20026;-84
2021/04/07 08:12:10;;;;;;;22.25;13.15;;;;;;;13.61;65.02;97687.78;6277102;22;20277;-85
2021/04/07 08:14:39;;;;;;;25.25;14.38;;;;;;;13.59;66.11;97688.09;6277599;22;20416;-87
2021/04/07 08:17:07;;;;;;;26.02;15.60;;;;;;;13.62;66.25;97694.69;6277155;22;20305;-87
2021/04/07 08:19:35;;;;;;;25.23;14.23;;;;;;;13.66;65.60;97700.19;6277120;22;20412;-85
2021/04/07 08:22:08;;;;;;;21.00;12.38;;;;;;;13.75;65.24;97703.63;6277297;22;20368;-86
2021/04/07 08:24:33;;;;;;;19.88;13.73;;;;;;;13.86;65.86;97694.03;6277361;22;20011;-83
2021/04/07 08:27:01;;;;;;;19.23;12.27;;;;;;;13.97;65.17;97707.84;6277404;22;20343;-84
2021/04/07 08:29:26;;;;;;;17.23;11.25;;;;;;;14.06;63.40;97702.38;6277155;22;20009;-87
2021/04/07 08:31:52;;;;;;;21.88;14.40;;;;;;;14.10;63.57;97703.28;6277526;22;20025;-85
2021/04/07 08:34:22;;;;;;;20.45;13.80;;;;;;;14.19;64.29;97708.56;6276960;22;20461;-83
2021/04/07 08:36:48;;;;;;;25.08;14.90;;;;;;;14.23;64.80;97704.09;6277449;22;20376;-84
2021/04/07 08:39:16;;;;;;;23.92;14.60;;;;;;;14.19;65.83;97706.66;6271493;22;20012;-85
2021/04/07 08:41:42;;;;;;;24.60;15.37;;;;;;;14.25;66.07;97699.94;6271971;22;19995;-83
2021/04/07 08:44:10;;;;;;;26.10;14.80;;;;;;;14.30;65.16;97730.44;6246150;22;19992;-85
2021/04/07 08:46:45;;;;;;;24.33;13.43;;;;;;;14.28;65.33;97711.97;6271750;22;19998;-84
2021/04/07 08:49:32;;;;;;;24.42;15.20;;;;;;;14.33;65.18;97741.31;6271967;22;20031;-83
2021/04/07 08:51:58;;;;;;;23.53;13.53;;;;;;;14.38;64.73;97748.41;6272332;22;20034;-84
2021/04/07 08:54:23;;;;;;;24.48;16.27;;;;;;;14.44;63.98;97739.00;6246314;22;20082;-83
2021/04/07 08:56:57;;;;;;;33.33;19.30;;;;;;;14.58;64.18;97754.81;6246848;22;20031;-83
2021/04/07 08:59:24;;;;;;;31.63;17.35;;;;;;;14.66;62.93;97745.09;6246165;22;20025;-83
2021/04/07 09:02:05;;;;;;;28.27;16.60;;;;;;;14.71;62.68;97742.22;6272057;22;20004;-85
2021/04/07 09:04:35;;;;;;;33.22;19.00;;;;;;;14.75;62.48;97743.09;6246582;22;20004;-83
2021/04/07 09:07:02;;;;;;;32.05;18.08;;;;;;;14.77;62.81;97748.94;6251852;22;20022;-84
2021/04/07 09:09:34;;;;;;;32.05;20.30;;;;;;;14.81;61.82;97739.06;6246248;22;20008;-84
2021/04/07 09:12:00;;;;;;;29.92;19.13;;;;;;;14.77;62.07;97740.88;6246306;22;20003;-84
2021/04/07 09:14:26;;;;;;;27.20;19.50;;;;;;;14.68;62.40;97751.75;6246219;22;20054;-84
2021/04/07 09:17:01;;;;;;;28.30;17.58;;;;;;;14.74;62.54;97757.66;6246519;22;20003;-85
2021/04/07 09:19:29;;;;;;;29.63;18.35;;;;;;;14.75;61.80;97747.72;6246585;22;20014;-85
2021/04/07 09:22:00;;;;;;;28.87;18.90;;;;;;;14.68;61.09;97745.56;6248682;22;20090;-84
2021/04/07 09:24:28;;;;;;;32.83;18.13;;;;;;;14.76;61.94;97754.63;6249706;22;20430;-83
2021/04/07 09:26:57;;;;;;;25.52;16.77;;;;;;;14.78;60.86;97766.66;6276751;22;20012;-84
2021/04/07 09:29:23;;;;;;;23.30;16.10;;;;;;;14.84;60.53;97759.13;6274571;22;19995;-84
2021/04/07 09:31:52;;;;;;;30.02;17.98;;;;;;;14.86;59.48;97757.69;6249167;22;20026;-84
2021/04/07 09:34:18;;;;;;;30.17;18.00;;;;;;;14.83;58.94;97752.97;6249182;22;19996;-85
2021/04/07 09:36:46;;;;;;;29.08;18.33;;;;;;;14.82;57.64;97754.09;6249664;22;20000;-85
2021/04/07 09:39:23;;;;;;;27.65;16.25;;;;;;;14.82;58.64;97774.84;6249060;22;20003;-84
2021/04/07 09:41:50;;;;;;;30.63;19.20;;;;;;;14.82;58.71;97772.16;6249391;22;19999;-84
2021/04/07 09:44:17;;;;;;;28.95;17.17;;;;;;;14.75;58.69;97772.69;6274747;22;19992;-85
2021/04/07 09:46:59;;;;;;;23.30;15.07;;;;;;;14.70;58.79;97783.69;6250640;22;20368;-85
2021/04/07 09:49:26;;;;;;;22.48;14.32;;;;;;;14.69;58.50;97780.19;6249473;22;20050;-85
2021/04/07 09:51:53;;;;;;;16.80;12.73;;;;;;;14.65;58.11;97773.91;6249571;22;20007;-85
2021/04/07 09:54:30;;;;;;;19.55;13.32;;;;;;;14.62;58.08;97798.75;6249536;22;19995;-86
2021/04/07 09:57:00;;;;;;;20.63;12.05;;;;;;;14.58;58.36;97798.63;6249541;22;19996;-86
2021/04/07 09:59:38;;;;;;;19.17;12.27;;;;;;;14.58;58.12;97795.16;6274645;22;20000;-86
2021/04/07 10:02:34;;;;;;;18.55;10.75;;;;;;;14.54;57.35;97789.66;6275013;22;20003;-85
2021/04/07 10:05:00;;;;;;;14.90;9.60;;;;;;;14.56;56.65;97794.72;6250019;22;20134;-84
2021/04/07 10:07:29;;;;;;;11.57;8.85;;;;;;;14.58;55.48;97800.56;6279968;22;20061;-84
2021/04/07 10:09:58;;;;;;;14.23;8.57;;;;;;;14.60;55.08;97810.97;6279833;22;20003;-85
2021/04/07 10:12:29;;;;;;;11.57;8.32;;;;;;;14.68;54.51;97810.13;6280352;22;20003;-85
2021/04/07 10:14:56;;;;;;;10.00;7.28;;;;;;;14.71;54.11;97814.88;6305645;22;19999;-85
2021/04/07 10:17:27;;;;;;;10.63;7.70;;;;;;;14.77;54.04;97818.09;6280275;22;20007;-85
2021/04/07 10:19:53;;;;;;;12.57;9.13;;;;;;;14.81;54.09;97816.34;6305270;22;20080;-84
2021/04/07 10:22:21;;;;;;;9.60;7.65;;;;;;;14.83;53.11;97803.31;6278226;22;20003;-86
2021/04/07 10:24:48;;;;;;;;;;;;;;;14.85;53.01;97817.22;6304832;22;20053;-85
2021/04/07 10:27:18;;;;;;;10.07;6.22;;;;;;;14.84;52.77;97811.06;6278082;22;19899;-84
2021/04/07 10:29:43;;;;;;;9.02;6.22;;;;;;;14.84;53.03;97808.38;6303691;22;20025;-84
2021/04/07 10:32:17;;;;;;;7.93;5.93;;;;;;;14.85;53.03;97817.22;6278369;22;20427;-84
2021/04/07 10:34:42;;;;;;;14.23;7.00;;;;;;;14.89;52.74;97812.75;6278234;22;20003;-84
2021/04/07 10:37:10;;;;;;;9.65;6.47;;;;;;;14.94;52.63;97819.81;6278242;22;20317;-85
2021/04/07 10:39:40;;;;;;;6.97;5.53;;;;;;;14.96;52.11;97817.59;6278323;22;20439;-84
2021/04/07 10:42:15;;;;;;;8.75;6.38;;;;;;;14.95;52.13;97824.88;6278341;22;20003;-84
2021/04/07 10:44:40;;;;;;;6.82;5.20;;;;;;;15.04;52.16;97819.41;6278084;22;20003;-84
2021/04/07 10:47:16;;;;;;;6.22;5.05;;;;;;;14.95;50.99;97827.56;6278413;22;20416;-85
2021/04/07 10:49:58;;;;;;;5.38;4.35;;;;;;;14.96;49.84;97836.44;6278276;22;20055;-86
2021/04/07 10:52:32;;;;;;;6.90;4.97;;;;;;;14.95;49.86;97842.94;6277735;22;20003;-86
2021/04/07 10:54:59;;;;;;;6.93;4.55;;;;;;;14.98;49.47;97832.28;6304073;22;20003;-84
2021/04/07 10:57:35;;;;;;;4.72;3.72;;;;;;;15.01;49.87;97830.81;6278010;22;20014;-86
2021/04/07 11:00:04;;;;;;;5.97;3.55;;;;;;;15.08;49.04;97839.13;6278081;22;20003;-85
2021/04/07 11:02:43;;;;;;;6.35;3.67;;;;;;;15.10;48.63;97849.56;6277798;22;20028;-84
2021/04/07 11:05:17;;;;;;;6.22;3.88;;;;;;;15.10;49.00;97857.63;6304186;22;19999;-85
2021/04/07 11:07:43;;;;;;;6.13;3.50;;;;;;;15.18;48.33;97856.75;6303391;22;20436;-85
2021/04/07 11:10:12;;;;;;;5.97;3.28;;;;;;;15.21;47.38;97869.56;6278016;22;20420;-85
2021/04/07 11:12:37;;;;;;;4.28;2.50;;;;;;;15.23;47.44;97891.53;6277516;22;20022;-85
2021/04/07 11:15:05;;;;;;;4.80;3.15;;;;;;;15.23;46.28;97878.06;6278101;22;20010;-84
2021/04/07 11:17:30;;;;;;;5.53;3.58;;;;;;;15.17;46.03;97882.09;6277822;22;20443;-84
2021/04/07 11:19:56;;;;;;;3.80;2.80;;;;;;;15.19;46.06;97885.25;6277717;22;19999;-83
2021/04/07 11:22:21;;;;;;;3.65;2.83;;;;;;;15.12;45.40;97858.09;6277697;22;20069;-86
2021/04/07 11:24:47;;;;;;;2.88;2.40;;;;;;;15.08;45.93;97876.81;6277754;22;20038;-84
2021/04/07 11:27:12;;;;;;;4.22;2.30;;;;;;;15.08;46.58;97868.75;6304199;22;19999;-83
2021/04/07 11:29:38;;;;;;;2.90;2.28;;;;;;;15.10;46.32;97879.19;6303768;22;19995;-84
2021/04/07 11:32:06;;;;;;;2.80;2.58;;;;;;;15.09;46.79;97881.09;6277945;22;20033;-84
2021/04/07 11:35:38;;;;;;;3.35;2.25;;;;;;;15.13;46.55;97891.97;6277347;22;20007;-85
2021/04/07 11:37:36;;;;;;;2.50;2.08;;;;;;;15.13;46.27;97873.13;6277247;22;20003;-84
2021/04/07 11:40:08;;;;;;;5.40;2.85;;;;;;;15.13;46.24;97882.00;6303404;22;20420;-83
2021/04/07 11:45:03;;;;;;;3.05;2.40;;;;;;;15.05;45.69;97897.13;6304736;22;20006;-83
2021/04/07 11:47:28;;;;;;;4.20;2.15;;;;;;;14.97;44.96;97900.69;6277358;22;20078;-85
2021/04/07 11:49:54;;;;;;;2.47;2.28;;;;;;;14.98;45.32;97910.34;6303527;22;20027;-86
2021/04/07 11:52:19;;;;;;;1.98;1.80;;;;;;;14.95;45.24;97912.91;6303211;22;20003;-85
2021/04/07 11:54:45;;;;;;;2.17;1.98;;;;;;;14.84;44.59;97901.78;6303404;22;20038;-86
2021/04/07 11:57:11;;;;;;;1.52;1.42;;;;;;;14.79;45.43;97918.91;6303318;22;20340;-86
2021/04/07 11:59:36;;;;;;;2.33;1.55;;;;;;;14.75;45.63;97909.94;6303020;22;19999;-86
2021/04/07 12:02:02;;;;;;;1.75;1.63;;;;;;;14.67;46.33;97908.91;6303430;22;20013;-86
2021/04/07 12:04:30;;;;;;;2.17;1.83;;;;;;;14.66;47.11;97928.06;6303061;22;20497;-86
2021/04/07 12:06:56;;;;;;;2.20;2.00;;;;;;;14.66;46.38;97922.69;6302880;22;20015;-85
2021/04/07 12:09:22;;;;;;;1.58;1.48;;;;;;;14.54;46.42;97929.56;6302871;22;20242;-86
2021/04/07 12:11:48;;;;;;;1.73;1.63;;;;;;;14.39;45.57;97946.28;6303020;22;20328;-86
2021/04/07 12:14:14;;;;;;;2.28;1.30;;;;;;;14.17;45.03;97950.09;6277143;22;20037;-86
2021/04/07 12:16:39;;;;;;;1.50;1.40;;;;;;;14.04;46.26;97949.25;6303224;22;20003;-86
2021/04/07 12:19:07;;;;;;;1.13;1.08;;;;;;;13.86;46.32;97935.09;6277431;22;20003;-85
2021/04/07 12:21:33;;;;;;;2.03;1.80;;;;;;;13.86;46.96;97940.47;6277275;22;20010;-86
2021/04/07 12:23:59;;;;;;;2.63;1.75;;;;;;;13.70;47.31;97946.41;6277514;22;20007;-85